createdAt,value
2022-11-16T00:02:23.012Z,21.40
2022-11-16T00:04:51.277Z,20.90
2022-11-16T00:07:19.314Z,22.40
2022-11-16T00:09:47.418Z,20.10
2022-11-16T00:12:15.486Z,21.60
2022-11-16T00:14:43.564Z,21.40
2022-11-16T00:17:11.493Z,20.40
2022-11-16T00:19:39.499Z,22.60
2022-11-16T00:22:07.572Z,21.70
2022-11-16T00:24:35.743Z,20.80
2022-11-16T00:27:03.927Z,20.40
2022-11-16T00:29:31.888Z,20.60
2022-11-16T00:31:59.959Z,22.10
2022-11-16T00:34:28.747Z,20.00
2022-11-16T00:36:56.819Z,20.00
2022-11-16T00:39:25.198Z,19.10
2022-11-16T00:41:53.267Z,19.60
2022-11-16T00:44:21.466Z,20.90
2022-11-16T00:46:49.623Z,19.80
2022-11-16T00:49:17.694Z,19.80
2022-11-16T00:51:45.760Z,20.30
2022-11-16T00:54:14.044Z,20.00
2022-11-16T00:56:42.313Z,20.00
2022-11-16T00:59:10.398Z,20.10
2022-11-16T01:01:38.727Z,19.70
2022-11-16T01:04:07.658Z,20.40
2022-11-16T01:06:37.187Z,20.50
2022-11-16T01:09:05.235Z,19.30
2022-11-16T01:11:51.847Z,20.60
2022-11-16T01:14:19.930Z,19.80
2022-11-16T01:16:50.853Z,19.00
2022-11-16T01:19:19.030Z,19.40
2022-11-16T01:21:47.109Z,20.80
2022-11-16T01:24:15.176Z,20.00
2022-11-16T01:26:43.555Z,19.20
2022-11-16T01:29:11.831Z,20.10
2022-11-16T01:31:43.707Z,21.30
2022-11-16T01:34:11.762Z,20.80
2022-11-16T01:36:39.830Z,21.60
2022-11-16T01:39:08.822Z,20.40
2022-11-16T01:44:15.622Z,21.00
2022-11-16T01:46:54.486Z,21.10
2022-11-16T01:49:25.686Z,20.90
2022-11-16T01:52:02.066Z,20.20
2022-11-16T01:54:37.730Z,21.40
2022-11-16T01:57:09.854Z,20.70
2022-11-16T01:59:47.791Z,21.50
2022-11-16T02:02:19.121Z,21.70
2022-11-16T02:04:49.075Z,21.00
2022-11-16T02:07:24.601Z,23.40
2022-11-16T02:10:19.693Z,24.00
2022-11-16T02:13:22.167Z,24.10
2022-11-16T02:16:03.962Z,23.50
2022-11-16T02:18:59.270Z,22.10
2022-11-16T02:21:43.011Z,22.40
2022-11-16T02:24:42.832Z,22.60
2022-11-16T02:27:32.715Z,21.40
2022-11-16T02:30:01.529Z,19.60
2022-11-16T02:32:48.026Z,19.90
2022-11-16T02:35:25.394Z,20.00
2022-11-16T02:38:07.295Z,20.10
2022-11-16T02:40:39.379Z,19.60
2022-11-16T02:43:10.066Z,20.40
2022-11-16T02:45:47.800Z,18.80
2022-11-16T02:48:25.380Z,20.20
2022-11-16T02:50:54.680Z,19.20
2022-11-16T02:53:25.218Z,18.50
2022-11-16T02:55:53.794Z,18.70
2022-11-16T02:58:25.534Z,18.50
2022-11-16T03:01:17.006Z,19.70
2022-11-16T03:04:16.583Z,19.70
2022-11-16T03:06:48.891Z,19.10
2022-11-16T03:09:27.578Z,19.90
2022-11-16T03:12:00.817Z,21.10
2022-11-16T03:14:40.416Z,20.40
2022-11-16T03:17:16.060Z,19.40
2022-11-16T03:20:15.530Z,18.10
2022-11-16T03:22:54.892Z,18.20
2022-11-16T03:25:29.646Z,18.40
2022-11-16T03:28:43.484Z,19.20
2022-11-16T03:31:16.982Z,19.40
2022-11-16T03:33:56.126Z,19.00
2022-11-16T03:36:27.359Z,19.70
2022-11-16T03:39:01.422Z,22.10
2022-11-16T03:41:33.253Z,22.60
2022-11-16T03:44:02.293Z,21.40
2022-11-16T03:46:30.501Z,21.60
2022-11-16T03:49:01.226Z,21.20
2022-11-16T03:51:32.682Z,22.40
2022-11-16T03:54:00.863Z,22.80
2022-11-16T03:56:29.342Z,23.30
2022-11-16T03:58:58.330Z,23.30
2022-11-16T04:01:26.469Z,23.50
2022-11-16T04:03:54.689Z,23.40
2022-11-16T04:06:41.701Z,23.20
2022-11-16T04:09:29.326Z,24.60
2022-11-16T04:12:16.157Z,23.70
2022-11-16T04:15:03.356Z,24.10
2022-11-16T04:17:50.789Z,24.20
2022-11-16T04:20:37.499Z,21.70
2022-11-16T04:23:32.107Z,22.50
2022-11-16T04:26:00.568Z,21.70
2022-11-16T04:28:32.187Z,23.00
2022-11-16T04:31:23.028Z,23.80
2022-11-16T04:34:24.147Z,24.50
2022-11-16T04:37:12.595Z,21.80
2022-11-16T04:39:41.210Z,21.70
2022-11-16T04:42:19.259Z,21.90
2022-11-16T04:45:07.047Z,21.30
2022-11-16T04:47:44.136Z,22.30
2022-11-16T04:50:12.384Z,21.40
2022-11-16T04:52:41.299Z,21.00
2022-11-16T04:55:12.791Z,21.40
2022-11-16T04:57:40.927Z,20.80
2022-11-16T05:00:09.993Z,21.20
2022-11-16T05:02:38.607Z,20.30
2022-11-16T05:05:07.911Z,21.20
2022-11-16T05:07:37.257Z,20.80
2022-11-16T05:10:13.374Z,22.00
2022-11-16T05:12:41.623Z,20.40
2022-11-16T05:15:10.336Z,21.40
2022-11-16T05:17:38.509Z,20.60
2022-11-16T05:20:29.412Z,20.80
2022-11-16T05:23:01.692Z,21.00
2022-11-16T05:25:36.939Z,23.00
2022-11-16T05:28:07.555Z,22.30
2022-11-16T05:30:38.806Z,21.50
2022-11-16T05:33:07.086Z,21.80
2022-11-16T05:35:38.330Z,21.00
2022-11-16T05:38:06.396Z,21.40
2022-11-16T05:40:36.414Z,23.30
2022-11-16T05:43:04.493Z,21.40
2022-11-16T05:45:35.470Z,20.10
2022-11-16T05:48:03.803Z,23.80
2022-11-16T05:50:33.105Z,21.40
2022-11-16T05:53:06.090Z,22.50
2022-11-16T05:55:36.345Z,21.70
2022-11-16T05:58:04.281Z,21.60
2022-11-16T06:00:32.229Z,22.60
2022-11-16T06:03:00.676Z,22.80
2022-11-16T06:05:39.021Z,22.90
2022-11-16T06:08:08.976Z,23.00
2022-11-16T06:10:37.149Z,22.90
2022-11-16T06:13:05.536Z,24.40
2022-11-16T06:15:38.511Z,23.60
2022-11-16T06:18:08.012Z,24.80
2022-11-16T06:20:39.562Z,24.70
2022-11-16T06:23:07.741Z,24.70
2022-11-16T06:25:39.083Z,23.70
2022-11-16T06:28:08.246Z,23.50
2022-11-16T06:30:38.511Z,22.40
2022-11-16T06:33:07.397Z,23.70
2022-11-16T06:35:35.570Z,22.70
2022-11-16T06:38:04.492Z,21.70
2022-11-16T06:40:33.359Z,22.10
2022-11-16T06:43:02.344Z,23.70
2022-11-16T06:45:30.471Z,23.90
2022-11-16T06:48:00.128Z,24.70
2022-11-16T06:50:28.303Z,25.60
2022-11-16T06:52:56.577Z,26.60
2022-11-16T06:55:24.863Z,28.70
2022-11-16T06:57:53.540Z,29.10
2022-11-16T07:00:22.117Z,31.40
2022-11-16T07:02:50.762Z,26.40
2022-11-16T07:05:20.014Z,28.20
2022-11-16T07:07:48.244Z,27.00
2022-11-16T07:10:16.869Z,27.50
2022-11-16T07:12:44.957Z,27.80
2022-11-16T07:15:13.939Z,26.80
2022-11-16T07:17:43.015Z,27.00
2022-11-16T07:20:12.237Z,26.20
2022-11-16T07:22:40.718Z,25.60
2022-11-16T07:25:11.564Z,24.70
2022-11-16T07:27:39.626Z,25.40
2022-11-16T07:30:08.407Z,23.90
2022-11-16T07:33:08.741Z,25.20
2022-11-16T07:36:09.901Z,25.50
2022-11-16T07:38:39.286Z,26.40
2022-11-16T07:41:11.086Z,27.00
2022-11-16T07:43:51.461Z,27.20
2022-11-16T07:49:18.269Z,26.20
2022-11-16T07:51:55.665Z,24.20
2022-11-16T07:54:35.408Z,27.00
2022-11-16T07:57:04.398Z,25.00
2022-11-16T07:59:32.578Z,25.50
2022-11-16T08:02:01.716Z,23.80
2022-11-16T08:04:29.867Z,25.40
2022-11-16T08:06:59.376Z,25.70
2022-11-16T08:09:27.838Z,24.40
2022-11-16T08:11:55.905Z,23.90
2022-11-16T08:14:24.693Z,24.70
2022-11-16T08:16:53.892Z,23.30
2022-11-16T08:19:21.841Z,23.90
2022-11-16T08:21:49.927Z,21.90
2022-11-16T08:24:18.617Z,24.00
2022-11-16T08:26:46.999Z,23.90
2022-11-16T08:29:16.087Z,30.90
2022-11-16T08:31:48.668Z,28.40
2022-11-16T08:34:19.812Z,29.20
2022-11-16T08:36:50.960Z,28.80
2022-11-16T08:39:20.424Z,28.10
2022-11-16T08:41:48.539Z,27.90
2022-11-16T08:44:16.711Z,29.70
2022-11-16T08:46:46.833Z,28.70
2022-11-16T08:49:22.890Z,29.10
2022-11-16T08:51:50.960Z,30.20
2022-11-16T08:54:20.358Z,29.50
2022-11-16T08:56:49.250Z,29.90
2022-11-16T08:59:18.150Z,30.60
2022-11-16T09:01:52.220Z,28.30
2022-11-16T09:04:20.315Z,28.30
2022-11-16T09:06:48.445Z,28.20
2022-11-16T09:09:16.682Z,27.40
2022-11-16T09:11:44.967Z,26.90
2022-11-16T09:14:13.025Z,26.60
2022-11-16T09:16:41.098Z,25.40
2022-11-16T09:19:09.496Z,25.60
2022-11-16T09:21:37.748Z,26.40
2022-11-16T09:24:06.129Z,23.60
2022-11-16T09:26:34.132Z,21.30
2022-11-16T09:29:04.531Z,22.70
